createdAt,value
2019-03-26T00:01:09.147Z,6.23
2019-03-26T00:03:37.603Z,5.90
2019-03-26T00:06:06.130Z,11.43
2019-03-26T00:08:34.712Z,5.37
2019-03-26T00:11:03.198Z,6.43
2019-03-26T00:13:31.652Z,5.37
2019-03-26T00:16:00.193Z,4.80
2019-03-26T00:18:28.858Z,6.10
2019-03-26T00:20:57.391Z,5.27
2019-03-26T00:23:25.927Z,6.70
2019-03-26T00:25:54.483Z,7.07
2019-03-26T00:28:23.006Z,6.97
2019-03-26T00:30:51.466Z,8.57
2019-03-26T00:33:19.946Z,7.93
2019-03-26T00:35:48.498Z,5.13
2019-03-26T00:38:17.027Z,4.83
2019-03-26T00:40:45.539Z,8.10
2019-03-26T00:43:14.031Z,6.90
2019-03-26T00:45:42.638Z,6.70
2019-03-26T00:48:11.102Z,10.33
2019-03-26T00:50:39.670Z,5.83
2019-03-26T00:53:08.130Z,6.47
2019-03-26T00:55:36.599Z,9.07
2019-03-26T00:58:05.150Z,6.63
2019-03-26T01:00:41.850Z,5.83
2019-03-26T01:03:10.847Z,4.90
2019-03-26T01:05:39.467Z,13.67
2019-03-26T01:08:08.091Z,7.60
2019-03-26T01:10:36.639Z,9.73
2019-03-26T01:13:06.569Z,8.70
2019-03-26T01:15:35.267Z,6.67
2019-03-26T01:18:04.062Z,5.43
2019-03-26T01:20:32.547Z,4.70
2019-03-26T01:23:01.011Z,7.67
2019-03-26T01:25:29.495Z,9.63
2019-03-26T01:27:58.022Z,6.50
2019-03-26T01:30:26.483Z,5.70
2019-03-26T01:32:54.962Z,5.63
2019-03-26T01:35:23.454Z,8.23
2019-03-26T01:37:51.918Z,7.73
2019-03-26T01:40:20.375Z,6.50
2019-03-26T01:42:48.875Z,10.87
2019-03-26T01:45:17.403Z,6.40
2019-03-26T01:47:45.859Z,6.50
2019-03-26T01:50:14.579Z,6.03
2019-03-26T01:52:43.139Z,7.40
2019-03-26T01:55:11.736Z,6.37
2019-03-26T01:57:40.223Z,7.67
2019-03-26T02:00:08.895Z,6.60
2019-03-26T02:02:37.450Z,6.50
2019-03-26T02:05:06.947Z,9.07
2019-03-26T02:07:35.506Z,7.87
2019-03-26T02:10:04.403Z,8.57
2019-03-26T02:12:32.895Z,5.73
2019-03-26T02:15:01.350Z,8.03
2019-03-26T02:17:29.913Z,14.33
2019-03-26T02:19:58.714Z,10.43
2019-03-26T02:22:27.170Z,9.50
2019-03-26T02:24:55.671Z,7.47
2019-03-26T02:27:24.204Z,8.80
2019-03-26T02:29:52.691Z,6.97
2019-03-26T02:32:21.146Z,7.60
2019-03-26T02:34:49.633Z,8.10
2019-03-26T02:37:18.167Z,11.77
2019-03-26T02:39:46.652Z,10.67
2019-03-26T02:42:15.111Z,7.83
2019-03-26T02:44:43.608Z,10.13
2019-03-26T02:47:12.140Z,7.87
2019-03-26T02:49:40.600Z,6.47
2019-03-26T02:52:09.090Z,7.73
2019-03-26T02:54:37.651Z,9.33
2019-03-26T02:57:06.211Z,7.20
2019-03-26T02:59:34.673Z,10.27
2019-03-26T03:02:03.305Z,8.70
2019-03-26T03:04:31.860Z,12.80
2019-03-26T03:07:00.435Z,8.00
2019-03-26T03:09:28.895Z,8.47
2019-03-26T03:11:57.527Z,7.00
2019-03-26T03:14:26.202Z,7.67
2019-03-26T03:16:54.718Z,6.27
2019-03-26T03:19:23.312Z,11.43
2019-03-26T03:21:51.842Z,11.67
2019-03-26T03:24:20.303Z,6.87
2019-03-26T03:26:48.800Z,6.77
2019-03-26T03:29:17.260Z,8.17
2019-03-26T03:31:45.795Z,10.60
2019-03-26T03:34:14.283Z,10.87
2019-03-26T03:36:42.839Z,9.17
2019-03-26T03:39:11.439Z,6.73
2019-03-26T03:41:39.990Z,8.20
2019-03-26T03:44:08.591Z,8.97
2019-03-26T03:46:38.208Z,7.70
2019-03-26T03:49:06.883Z,8.57
2019-03-26T03:51:36.482Z,11.07
2019-03-26T03:54:05.203Z,9.77
2019-03-26T03:56:37.404Z,6.53
2019-03-26T03:59:07.628Z,11.53
2019-03-26T04:01:36.088Z,12.00
2019-03-26T04:04:04.581Z,6.20
2019-03-26T04:06:33.119Z,9.37
2019-03-26T04:09:01.689Z,7.67
2019-03-26T04:11:30.224Z,7.47
2019-03-26T04:13:58.748Z,7.60
2019-03-26T04:16:27.311Z,9.50
2019-03-26T04:18:55.851Z,8.63
2019-03-26T04:21:24.384Z,10.43
2019-03-26T04:23:52.953Z,10.67
2019-03-26T04:26:21.411Z,6.27
2019-03-26T04:28:49.875Z,10.73
2019-03-26T04:31:18.439Z,9.03
2019-03-26T04:33:46.970Z,8.20
2019-03-26T04:36:25.250Z,9.00
2019-03-26T04:38:45.720Z,7.70
2019-03-26T04:41:14.256Z,9.63
2019-03-26T04:43:42.811Z,9.47
2019-03-26T04:46:11.382Z,10.10
2019-03-26T04:48:39.842Z,9.57
2019-03-26T04:51:08.303Z,9.33
2019-03-26T04:53:36.796Z,10.93
2019-03-26T04:56:05.339Z,10.50
2019-03-26T04:58:33.874Z,7.00
2019-03-26T05:01:02.359Z,11.47
2019-03-26T05:03:30.818Z,9.00
2019-03-26T05:05:59.319Z,12.13
2019-03-26T05:08:27.954Z,9.27
2019-03-26T05:10:56.411Z,9.20
2019-03-26T05:13:25.094Z,7.67
2019-03-26T05:15:53.640Z,9.47
2019-03-26T05:18:22.204Z,5.80
2019-03-26T05:20:50.690Z,9.37
2019-03-26T05:23:19.255Z,10.57
2019-03-26T05:25:47.790Z,10.83
2019-03-26T05:28:16.372Z,6.97
2019-03-26T05:30:44.911Z,9.57
2019-03-26T05:33:13.398Z,8.50
2019-03-26T05:35:42.014Z,8.70
2019-03-26T05:38:10.573Z,7.03
2019-03-26T05:40:39.104Z,7.53
2019-03-26T05:43:07.678Z,8.80
2019-03-26T05:45:36.242Z,11.40
2019-03-26T05:48:04.780Z,14.30
2019-03-26T05:50:33.272Z,12.43
2019-03-26T05:53:01.730Z,14.33
2019-03-26T05:55:30.204Z,8.60
2019-03-26T05:57:58.680Z,6.13
2019-03-26T06:00:27.706Z,6.27
2019-03-26T06:02:56.166Z,6.73
2019-03-26T06:05:24.654Z,6.93
2019-03-26T06:07:53.119Z,11.33
2019-03-26T06:10:21.670Z,8.30
2019-03-26T06:12:50.451Z,10.20
2019-03-26T06:15:19.074Z,6.60
2019-03-26T06:17:47.547Z,9.10
2019-03-26T06:20:17.144Z,9.55
2019-03-26T06:22:45.626Z,10.00
2019-03-26T06:25:14.156Z,8.80
2019-03-26T06:27:42.756Z,9.67
2019-03-26T06:30:11.971Z,10.27
2019-03-26T06:32:40.503Z,9.43
2019-03-26T06:35:09.398Z,9.13
2019-03-26T06:37:39.498Z,9.17
2019-03-26T06:40:09.919Z,10.73
2019-03-26T06:42:38.472Z,8.63
2019-03-26T06:45:10.919Z,8.67
2019-03-26T06:47:39.435Z,11.27
2019-03-26T06:50:09.710Z,10.10
2019-03-26T06:52:38.320Z,11.40
2019-03-26T06:55:07.955Z,12.03
2019-03-26T06:57:36.936Z,14.23
2019-03-26T07:00:11.230Z,15.83
2019-03-26T07:02:40.035Z,9.63
2019-03-26T07:05:09.466Z,11.93
2019-03-26T07:07:37.938Z,13.63
2019-03-26T07:10:08.118Z,10.87
2019-03-26T07:12:37.052Z,9.17
2019-03-26T07:15:09.916Z,11.13
2019-03-26T07:17:38.547Z,11.50
2019-03-26T07:20:08.548Z,12.27
2019-03-26T07:22:37.047Z,9.20
2019-03-26T07:25:08.458Z,10.70
2019-03-26T07:27:37.541Z,12.90
2019-03-26T07:30:10.435Z,7.77
2019-03-26T07:32:38.992Z,9.53
2019-03-26T07:35:08.198Z,11.93
2019-03-26T07:37:45.282Z,9.83
2019-03-26T07:40:07.927Z,7.87
2019-03-26T07:42:36.386Z,7.80
2019-03-26T07:45:07.802Z,7.83
2019-03-26T07:47:36.511Z,7.23
2019-03-26T07:50:07.250Z,8.60
2019-03-26T07:52:35.787Z,6.83
2019-03-26T07:55:06.819Z,6.03
2019-03-26T07:57:35.306Z,6.87
2019-03-26T08:00:09.531Z,7.47
2019-03-26T08:02:38.023Z,5.87
2019-03-26T08:05:08.200Z,9.20
2019-03-26T08:07:37.151Z,9.80
2019-03-26T08:10:09.206Z,10.73
2019-03-26T08:12:37.884Z,10.43
2019-03-26T08:15:09.874Z,10.07
2019-03-26T08:17:38.400Z,6.63
2019-03-26T08:20:07.978Z,9.27
2019-03-26T08:22:36.508Z,8.37
2019-03-26T08:25:07.063Z,7.63
2019-03-26T08:27:35.698Z,10.57
2019-03-26T08:30:08.579Z,7.40
2019-03-26T08:32:37.404Z,8.80
2019-03-26T08:35:06.431Z,8.90
2019-03-26T08:37:34.919Z,14.77
2019-03-26T08:40:05.418Z,9.23
2019-03-26T08:42:33.906Z,16.00
2019-03-26T08:45:02.443Z,14.80
2019-03-26T08:47:31.103Z,16.83
2019-03-26T08:49:59.586Z,14.43
2019-03-26T08:52:28.171Z,14.50
2019-03-26T08:54:56.670Z,13.50
2019-03-26T08:57:25.211Z,17.27
2019-03-26T08:59:53.679Z,15.43
2019-03-26T09:02:22.242Z,17.70
2019-03-26T09:04:50.770Z,16.07
2019-03-26T09:07:19.252Z,18.37
2019-03-26T09:09:47.910Z,15.93
2019-03-26T09:12:16.546Z,20.13
2019-03-26T09:14:45.014Z,17.30
2019-03-26T09:17:13.522Z,18.03
2019-03-26T09:19:42.020Z,18.83
2019-03-26T09:22:10.558Z,19.80
2019-03-26T09:24:39.048Z,16.77
2019-03-26T09:27:07.515Z,19.50
2019-03-26T09:29:35.980Z,18.97
2019-03-26T09:32:04.538Z,18.97
2019-03-26T09:34:33.026Z,19.43
2019-03-26T09:37:01.600Z,14.83
2019-03-26T09:39:30.207Z,14.33
2019-03-26T09:41:58.858Z,17.10
2019-03-26T09:44:27.323Z,19.83
2019-03-26T09:46:55.890Z,17.70
2019-03-26T09:49:24.375Z,17.73
2019-03-26T09:51:52.839Z,16.50
2019-03-26T09:54:21.406Z,17.23
2019-03-26T09:56:49.942Z,15.63
2019-03-26T09:59:18.503Z,16.23
2019-03-26T10:01:47.072Z,17.23
2019-03-26T10:04:15.535Z,14.93
2019-03-26T10:06:44.142Z,12.47
2019-03-26T10:09:12.630Z,19.70
2019-03-26T10:11:41.094Z,15.97
2019-03-26T10:14:09.651Z,15.57
2019-03-26T10:16:38.136Z,16.60
2019-03-26T10:19:06.691Z,15.27
2019-03-26T10:21:35.228Z,13.37
2019-03-26T10:24:03.699Z,13.43
2019-03-26T10:26:32.262Z,16.57
2019-03-26T10:29:13.865Z,12.23
2019-03-26T10:31:31.018Z,12.87
2019-03-26T10:33:59.491Z,13.80
2019-03-26T10:36:28.191Z,14.63
2019-03-26T10:39:05.521Z,13.67
2019-03-26T10:41:26.975Z,13.43
2019-03-26T10:43:55.434Z,14.77
2019-03-26T10:46:23.926Z,18.40
2019-03-26T10:48:52.419Z,12.40
2019-03-26T10:51:20.912Z,16.97
2019-03-26T10:53:49.383Z,14.50
2019-03-26T10:56:17.951Z,15.83
2019-03-26T10:58:46.416Z,14.37
2019-03-26T11:01:14.886Z,14.70
2019-03-26T11:03:43.447Z,14.80
2019-03-26T11:06:12.039Z,14.77
2019-03-26T11:08:40.623Z,16.07
2019-03-26T11:11:09.088Z,14.50
2019-03-26T11:13:37.546Z,16.47
2019-03-26T11:16:06.135Z,15.90
2019-03-26T11:18:34.619Z,13.50
2019-03-26T11:21:03.462Z,14.20
2019-03-26T11:23:32.118Z,16.63
2019-03-26T11:26:00.670Z,13.33
2019-03-26T11:28:29.237Z,13.53
2019-03-26T11:30:57.698Z,14.10
2019-03-26T11:33:26.276Z,13.33
2019-03-26T11:35:54.816Z,13.73
2019-03-26T11:38:24.098Z,15.37
2019-03-26T11:40:52.587Z,13.13
2019-03-26T11:43:21.122Z,11.47
2019-03-26T11:45:49.813Z,11.97
2019-03-26T11:48:18.351Z,13.00
2019-03-26T11:50:46.915Z,9.97
2019-03-26T11:53:15.518Z,11.27
2019-03-26T11:55:44.020Z,13.60
2019-03-26T11:58:12.578Z,12.97
2019-03-26T12:00:41.071Z,11.90
2019-03-26T12:03:09.565Z,14.17
2019-03-26T12:05:38.126Z,10.83
2019-03-26T12:08:06.620Z,14.50
2019-03-26T12:10:35.162Z,13.23
2019-03-26T12:13:03.830Z,10.00
2019-03-26T12:15:32.369Z,10.60
2019-03-26T12:18:00.859Z,9.53
2019-03-26T12:20:29.324Z,10.67
2019-03-26T12:22:57.813Z,9.77
2019-03-26T12:25:26.302Z,11.27
2019-03-26T12:27:54.768Z,12.40
2019-03-26T12:30:34.091Z,11.53
2019-03-26T12:33:02.693Z,9.60
2019-03-26T12:35:31.399Z,8.10
2019-03-26T12:37:59.952Z,8.03
2019-03-26T12:40:28.442Z,10.33
2019-03-26T12:42:56.932Z,10.20
2019-03-26T12:45:25.572Z,10.93
2019-03-26T12:47:54.147Z,8.57
2019-03-26T12:50:22.635Z,8.37
2019-03-26T12:52:51.114Z,8.07
2019-03-26T12:55:19.587Z,9.23
2019-03-26T12:57:48.067Z,8.87
2019-03-26T13:00:16.866Z,9.77
2019-03-26T13:02:45.362Z,8.40
2019-03-26T13:05:14.130Z,12.73
2019-03-26T13:07:42.626Z,10.27
2019-03-26T13:10:13.854Z,8.40
2019-03-26T13:12:41.630Z,8.97
2019-03-26T13:15:10.174Z,6.17
2019-03-26T13:17:38.818Z,9.43
2019-03-26T13:20:07.558Z,9.40
2019-03-26T13:22:36.083Z,8.63
2019-03-26T13:25:06.607Z,9.40
2019-03-26T13:27:35.936Z,7.27
2019-03-26T13:30:06.459Z,7.47
2019-03-26T13:32:35.059Z,6.20
2019-03-26T13:35:05.890Z,8.60
2019-03-26T13:37:34.426Z,8.47
2019-03-26T13:40:03.207Z,7.07
2019-03-26T13:42:31.694Z,5.47
2019-03-26T13:45:00.355Z,7.43
2019-03-26T13:47:29.052Z,5.17
2019-03-26T13:49:57.511Z,9.80
2019-03-26T13:52:26.001Z,7.63
2019-03-26T13:54:54.539Z,5.47
2019-03-26T13:57:23.038Z,7.07
2019-03-26T13:59:51.515Z,8.33
2019-03-26T14:02:20.072Z,8.23
2019-03-26T14:04:48.530Z,6.93
2019-03-26T14:07:17.002Z,7.10
2019-03-26T14:09:45.561Z,6.87
2019-03-26T14:12:14.466Z,9.77
2019-03-26T14:14:42.954Z,8.40
2019-03-26T14:17:11.446Z,5.70
2019-03-26T14:19:39.906Z,6.27
2019-03-26T14:22:08.533Z,5.87
2019-03-26T14:24:37.112Z,8.13
2019-03-26T14:27:05.731Z,9.63
2019-03-26T14:29:34.300Z,7.43
2019-03-26T14:32:02.763Z,6.57
2019-03-26T14:34:31.323Z,9.03
2019-03-26T14:36:59.798Z,9.13
2019-03-26T14:39:28.270Z,10.20
2019-03-26T14:41:56.832Z,13.33
2019-03-26T14:44:25.390Z,7.20
2019-03-26T14:46:53.879Z,9.63
2019-03-26T14:49:22.352Z,10.27
2019-03-26T14:51:50.954Z,8.17
2019-03-26T14:54:19.445Z,6.77
2019-03-26T14:56:47.992Z,11.17
2019-03-26T14:59:16.522Z,7.90
2019-03-26T15:01:45.090Z,8.77
2019-03-26T15:04:13.570Z,12.97
2019-03-26T15:06:42.196Z,11.93
2019-03-26T15:09:10.823Z,7.17
2019-03-26T15:11:39.434Z,13.97
2019-03-26T15:14:07.930Z,10.87
2019-03-26T15:16:36.609Z,13.50
2019-03-26T15:19:05.140Z,15.10
2019-03-26T15:21:33.786Z,11.50
2019-03-26T15:24:02.263Z,11.83
2019-03-26T15:26:30.887Z,10.57
2019-03-26T15:28:59.422Z,13.63
2019-03-26T15:31:27.918Z,13.27
2019-03-26T15:33:56.450Z,10.70
2019-03-26T15:36:24.959Z,12.57
2019-03-26T15:38:53.450Z,11.97
2019-03-26T15:41:22.233Z,12.30
2019-03-26T15:43:50.829Z,10.20
2019-03-26T15:46:19.366Z,12.37
2019-03-26T15:48:47.904Z,13.43
2019-03-26T15:51:16.401Z,10.07
2019-03-26T15:53:44.976Z,10.60
2019-03-26T15:56:13.510Z,12.17
2019-03-26T15:58:42.003Z,9.20
2019-03-26T16:01:10.547Z,11.03
2019-03-26T16:03:39.005Z,9.83
2019-03-26T16:06:07.591Z,11.03
2019-03-26T16:08:36.289Z,9.43
2019-03-26T16:11:04.810Z,10.30
2019-03-26T16:13:35.778Z,8.70
2019-03-26T16:16:03.651Z,9.20
2019-03-26T16:18:32.270Z,12.13
2019-03-26T16:21:00.759Z,10.97
2019-03-26T16:23:29.534Z,10.03
2019-03-26T16:25:58.186Z,11.03
2019-03-26T16:28:26.721Z,9.20
2019-03-26T16:30:55.186Z,8.10
2019-03-26T16:33:23.674Z,8.17
2019-03-26T16:35:52.191Z,11.70
2019-03-26T16:38:20.751Z,10.33
2019-03-26T16:40:49.217Z,11.83
2019-03-26T16:43:17.877Z,9.83
2019-03-26T16:45:46.390Z,10.27
2019-03-26T16:48:14.900Z,7.40
2019-03-26T16:50:43.430Z,9.93
2019-03-26T16:53:11.922Z,8.70
2019-03-26T16:55:40.414Z,11.70
2019-03-26T16:58:08.962Z,9.33
2019-03-26T17:00:37.422Z,7.10
2019-03-26T17:03:06.027Z,8.43
2019-03-26T17:05:34.586Z,9.07
2019-03-26T17:08:03.362Z,7.83
2019-03-26T17:10:31.923Z,8.10
2019-03-26T17:13:00.464Z,10.60
2019-03-26T17:15:29.015Z,9.17
2019-03-26T17:17:57.478Z,9.00
2019-03-26T17:20:26.107Z,8.23
2019-03-26T17:22:54.655Z,10.73
2019-03-26T17:25:23.347Z,11.13
2019-03-26T17:27:51.831Z,10.43
2019-03-26T17:30:20.367Z,8.93
2019-03-26T17:32:48.927Z,12.80
2019-03-26T17:35:17.422Z,8.00
2019-03-26T17:37:58.611Z,11.37
2019-03-26T17:40:16.182Z,10.63
2019-03-26T17:42:44.672Z,9.77
2019-03-26T17:45:13.385Z,8.13
2019-03-26T17:47:41.935Z,8.33
2019-03-26T17:50:11.636Z,7.57
2019-03-26T17:52:40.193Z,9.40
2019-03-26T17:55:08.825Z,11.40
2019-03-26T17:57:37.282Z,9.30
2019-03-26T18:00:08.847Z,9.80
2019-03-26T18:02:37.302Z,7.67
2019-03-26T18:05:08.859Z,9.23
2019-03-26T18:07:37.395Z,12.33
2019-03-26T18:10:06.644Z,9.80
2019-03-26T18:12:35.102Z,9.63
2019-03-26T18:15:03.771Z,11.00
2019-03-26T18:17:32.235Z,10.50
2019-03-26T18:20:00.703Z,10.90
2019-03-26T18:22:29.206Z,11.60
2019-03-26T18:24:57.738Z,8.10
2019-03-26T18:27:26.226Z,10.33
2019-03-26T18:29:54.783Z,10.20
2019-03-26T18:32:23.251Z,10.77
2019-03-26T18:35:11.355Z,11.57
2019-03-26T18:37:39.939Z,10.53
2019-03-26T18:40:08.534Z,12.63
2019-03-26T18:42:43.874Z,13.40
2019-03-26T18:45:08.178Z,14.60
2019-03-26T18:47:36.658Z,12.83
2019-03-26T18:50:06.388Z,12.87
2019-03-26T18:52:34.922Z,15.73
2019-03-26T18:55:03.923Z,14.03
2019-03-26T18:57:32.498Z,11.73
2019-03-26T19:00:01.031Z,11.10
2019-03-26T19:02:29.563Z,11.53
2019-03-26T19:04:58.311Z,13.70
2019-03-26T19:07:26.847Z,16.37
2019-03-26T19:09:55.351Z,14.23
2019-03-26T19:12:23.814Z,16.57
2019-03-26T19:14:52.286Z,15.73
2019-03-26T19:17:20.828Z,17.00
2019-03-26T19:19:49.343Z,14.30
2019-03-26T19:22:17.807Z,13.73
2019-03-26T19:24:46.380Z,20.27
2019-03-26T19:27:14.943Z,15.13
2019-03-26T19:29:43.498Z,16.13
2019-03-26T19:32:11.989Z,17.17
2019-03-26T19:34:40.451Z,16.23
2019-03-26T19:37:08.954Z,25.80
2019-03-26T19:39:37.487Z,19.30
2019-03-26T19:42:06.983Z,18.13
2019-03-26T19:44:35.634Z,17.70
2019-03-26T19:47:04.179Z,17.27
2019-03-26T19:49:32.827Z,16.63
2019-03-26T19:52:01.396Z,22.67
2019-03-26T19:54:29.942Z,18.70
2019-03-26T19:56:58.477Z,19.23
2019-03-26T19:59:26.982Z,21.87
2019-03-26T20:01:55.511Z,20.13
2019-03-26T20:04:24.068Z,19.27
2019-03-26T20:06:52.674Z,15.50
2019-03-26T20:09:21.171Z,19.07
2019-03-26T20:11:49.631Z,17.50
2019-03-26T20:14:18.184Z,16.50
2019-03-26T20:16:46.643Z,20.27
2019-03-26T20:19:15.113Z,21.43
2019-03-26T20:21:43.672Z,20.07
2019-03-26T20:24:12.223Z,18.17
2019-03-26T20:26:40.798Z,19.40
2019-03-26T20:29:09.579Z,20.37
2019-03-26T20:31:38.114Z,18.93
2019-03-26T20:34:06.615Z,19.73
2019-03-26T20:36:35.140Z,16.30
2019-03-26T20:39:05.467Z,21.43
2019-03-26T20:41:34.075Z,19.00
2019-03-26T20:44:02.683Z,17.17
2019-03-26T20:46:31.239Z,17.60
2019-03-26T20:48:59.748Z,18.30
2019-03-26T20:51:28.287Z,16.03
2019-03-26T20:53:56.855Z,17.27
2019-03-26T20:56:25.791Z,20.00
2019-03-26T20:58:54.319Z,23.90
2019-03-26T21:01:22.814Z,19.60
2019-03-26T21:03:51.290Z,18.10
2019-03-26T21:06:19.815Z,18.03
2019-03-26T21:08:48.308Z,14.60
2019-03-26T21:11:16.772Z,17.90
2019-03-26T21:13:50.587Z,17.67
2019-03-26T21:16:15.472Z,16.23
2019-03-26T21:18:43.959Z,16.60
2019-03-26T21:21:12.558Z,17.63
2019-03-26T21:23:41.043Z,19.70
2019-03-26T21:26:09.507Z,19.67
2019-03-26T21:28:37.990Z,15.60
2019-03-26T21:31:06.454Z,21.27
2019-03-26T21:33:35.038Z,18.57
2019-03-26T21:36:03.970Z,18.90
2019-03-26T21:38:32.716Z,16.77
2019-03-26T21:41:01.243Z,18.37
2019-03-26T21:43:29.735Z,20.37
2019-03-26T21:45:58.594Z,17.30
2019-03-26T21:48:27.069Z,17.20
2019-03-26T21:50:55.554Z,19.40
2019-03-26T21:53:24.238Z,17.83
2019-03-26T21:56:05.437Z,23.40
2019-03-26T21:58:23.009Z,19.47
2019-03-26T22:00:51.554Z,21.67
2019-03-26T22:03:20.113Z,21.33
2019-03-26T22:05:48.762Z,21.93
2019-03-26T22:08:18.170Z,23.50
2019-03-26T22:10:46.760Z,22.90
2019-03-26T22:13:15.294Z,20.77
2019-03-26T22:15:43.859Z,19.83
2019-03-26T22:18:13.058Z,21.13
2019-03-26T22:20:41.555Z,18.30
2019-03-26T22:23:10.344Z,21.07
2019-03-26T22:25:39.070Z,20.20
2019-03-26T22:28:07.622Z,19.73
2019-03-26T22:30:36.251Z,17.77
2019-03-26T22:33:04.748Z,20.40
2019-03-26T22:35:33.290Z,19.03
2019-03-26T22:38:01.754Z,17.50
2019-03-26T22:40:30.234Z,16.97
2019-03-26T22:42:58.795Z,18.83
2019-03-26T22:45:27.346Z,13.50
2019-03-26T22:47:55.811Z,20.33
2019-03-26T22:50:24.406Z,15.57
2019-03-26T22:52:52.888Z,19.17
2019-03-26T22:55:21.515Z,20.17
2019-03-26T22:57:49.978Z,17.40
2019-03-26T23:00:19.934Z,20.43
2019-03-26T23:02:48.535Z,20.50
2019-03-26T23:05:18.242Z,22.17
2019-03-26T23:07:46.802Z,19.57
2019-03-26T23:10:17.279Z,17.87
2019-03-26T23:12:45.842Z,19.10
2019-03-26T23:15:19.982Z,18.13
2019-03-26T23:17:48.878Z,17.77
2019-03-26T23:20:17.651Z,21.33
2019-03-26T23:22:46.305Z,17.73
2019-03-26T23:25:15.114Z,16.07
2019-03-26T23:27:43.650Z,19.50
2019-03-26T23:30:12.207Z,20.07
2019-03-26T23:32:40.744Z,18.93
2019-03-26T23:35:09.728Z,20.43
2019-03-26T23:37:38.359Z,19.97
2019-03-26T23:40:07.087Z,19.97
2019-03-26T23:42:35.626Z,17.03
2019-03-26T23:45:06.887Z,19.37
2019-03-26T23:47:35.426Z,16.47
2019-03-26T23:50:06.150Z,18.57
2019-03-26T23:52:34.678Z,16.77
2019-03-26T23:55:03.240Z,16.60
2019-03-26T23:57:31.819Z,17.47
